createdAt,value
2023-04-10T00:01:01.840Z,9.80
2023-04-10T00:06:05.001Z,9.60
2023-04-10T00:11:07.859Z,9.47
2023-04-10T00:16:11.716Z,9.31
2023-04-10T00:21:14.609Z,9.16
2023-04-10T00:26:18.000Z,9.22
2023-04-10T00:31:20.887Z,9.25
2023-04-10T00:36:24.024Z,9.19
2023-04-10T00:41:27.442Z,9.15
2023-04-10T00:46:31.807Z,9.08
2023-04-10T00:51:34.710Z,8.98
2023-04-10T00:56:38.018Z,8.88
2023-04-10T01:01:40.929Z,8.84
2023-04-10T01:07:04.728Z,8.84
2023-04-10T01:12:47.564Z,8.90
2023-04-10T01:18:04.346Z,8.95
2023-04-10T01:23:56.991Z,8.96
2023-04-10T01:29:01.339Z,8.88
2023-04-10T01:34:11.836Z,8.82
2023-04-10T01:39:19.264Z,8.80
2023-04-10T01:44:27.132Z,8.79
2023-04-10T01:49:31.628Z,8.76
2023-04-10T01:54:35.767Z,8.72
2023-04-10T01:59:40.133Z,8.74
2023-04-10T02:04:42.984Z,8.71
2023-04-10T02:10:02.954Z,8.63
2023-04-10T02:15:08.602Z,8.61
2023-04-10T02:20:12.793Z,8.62
2023-04-10T02:25:16.747Z,8.52
2023-04-10T02:30:19.734Z,8.36
2023-04-10T02:35:22.864Z,8.28
2023-04-10T02:40:25.822Z,8.21
2023-04-10T02:45:28.625Z,8.21
2023-04-10T02:50:32.440Z,8.39
2023-04-10T02:55:35.142Z,8.50
2023-04-10T03:00:38.454Z,8.42
2023-04-10T03:05:41.275Z,8.25
2023-04-10T03:10:45.708Z,8.11
2023-04-10T03:15:48.580Z,8.02
2023-04-10T03:20:51.432Z,7.94
2023-04-10T03:25:55.026Z,7.92
2023-04-10T03:30:57.901Z,7.93
2023-04-10T03:36:00.780Z,8.03
2023-04-10T03:41:03.719Z,8.02
2023-04-10T03:46:06.770Z,8.09
2023-04-10T03:51:09.689Z,8.17
2023-04-10T03:56:12.555Z,8.20
2023-04-10T04:01:15.473Z,8.17
2023-04-10T04:06:18.521Z,8.13
2023-04-10T04:11:21.342Z,8.15
2023-04-10T04:16:24.258Z,8.01
2023-04-10T04:21:27.698Z,7.84
2023-04-10T04:26:30.753Z,7.77
2023-04-10T04:31:33.714Z,7.73
2023-04-10T04:36:36.627Z,7.69
2023-04-10T04:41:39.414Z,7.67
2023-04-10T04:46:44.493Z,7.69
2023-04-10T04:51:47.594Z,7.79
2023-04-10T04:56:50.430Z,7.93
2023-04-10T05:01:53.331Z,7.90
2023-04-10T05:06:56.257Z,7.89
2023-04-10T05:11:59.116Z,7.95
2023-04-10T05:17:03.515Z,7.94
2023-04-10T05:22:06.731Z,7.90
2023-04-10T05:27:09.619Z,8.00
2023-04-10T05:32:12.541Z,8.13
2023-04-10T05:37:15.427Z,8.25
2023-04-10T05:42:18.278Z,8.35
2023-04-10T05:47:21.107Z,8.39
2023-04-10T05:52:23.924Z,8.52
2023-04-10T05:57:26.757Z,8.67
2023-04-10T06:02:29.796Z,8.79
2023-04-10T06:07:33.373Z,9.02
2023-04-10T06:12:36.281Z,9.23
2023-04-10T06:17:45.955Z,9.48
2023-04-10T06:22:48.814Z,9.77
2023-04-10T06:27:51.694Z,9.95
2023-04-10T06:32:54.610Z,10.04
2023-04-10T06:37:57.502Z,10.09
2023-04-10T06:43:01.427Z,10.11
2023-04-10T06:48:05.144Z,10.10
2023-04-10T06:53:08.076Z,10.16
2023-04-10T06:58:10.955Z,10.28
2023-04-10T07:03:13.899Z,10.30
2023-04-10T07:08:16.821Z,10.29
2023-04-10T07:13:19.669Z,10.34
2023-04-10T07:18:22.479Z,10.44
2023-04-10T07:23:25.552Z,10.64
2023-04-10T07:28:28.367Z,10.84
2023-04-10T07:33:31.493Z,10.95
2023-04-10T07:38:34.345Z,11.11
2023-04-10T07:43:37.274Z,11.31
2023-04-10T07:48:40.072Z,11.49
2023-04-10T07:53:43.484Z,11.65
2023-04-10T07:58:46.749Z,11.85
2023-04-10T08:03:49.788Z,12.05
2023-04-10T08:08:52.971Z,12.21
2023-04-10T08:14:02.432Z,12.32
2023-04-10T08:19:05.321Z,12.43
2023-04-10T08:24:08.148Z,12.57
2023-04-10T08:29:10.958Z,12.77
2023-04-10T08:34:13.831Z,12.92
2023-04-10T08:39:16.656Z,13.02
2023-04-10T08:44:19.482Z,13.11
2023-04-10T08:49:47.742Z,13.20
2023-04-10T08:54:56.251Z,13.33
2023-04-10T08:59:59.531Z,13.43
2023-04-10T09:05:05.895Z,13.56
2023-04-10T09:10:09.564Z,13.63
2023-04-10T09:15:12.671Z,13.69
2023-04-10T09:20:23.884Z,13.71
2023-04-10T09:25:36.533Z,13.72
2023-04-10T09:30:42.491Z,13.78
2023-04-10T09:35:45.370Z,13.88
2023-04-10T09:40:49.100Z,13.98
2023-04-10T09:45:57.526Z,14.02
2023-04-10T09:51:00.922Z,14.10
2023-04-10T09:56:05.320Z,14.25
2023-04-10T10:01:08.557Z,14.36
2023-04-10T10:06:11.815Z,14.41
2023-04-10T10:11:19.352Z,14.49
2023-04-10T10:16:34.707Z,14.66
2023-04-10T10:21:39.015Z,14.78
2023-04-10T10:26:46.105Z,14.90
2023-04-10T10:31:49.497Z,15.00
2023-04-10T10:36:52.283Z,15.09
2023-04-10T10:42:09.620Z,15.20
2023-04-10T10:47:27.650Z,15.27
2023-04-10T10:52:52.928Z,15.36
2023-04-10T10:57:59.151Z,15.38
2023-04-10T11:03:07.871Z,15.35
2023-04-10T11:08:10.902Z,15.42
2023-04-10T11:13:18.540Z,15.51
2023-04-10T11:18:56.045Z,15.52
2023-04-10T11:24:05.945Z,15.38
2023-04-10T11:29:28.859Z,15.20
2023-04-10T11:34:33.225Z,15.11
2023-04-10T11:39:36.078Z,15.20
2023-04-10T11:44:39.729Z,15.40
2023-04-10T11:49:42.598Z,15.54
2023-04-10T11:54:49.170Z,15.52
2023-04-10T11:59:52.088Z,15.39
2023-04-10T12:04:59.014Z,15.22
2023-04-10T12:10:02.140Z,15.15
2023-04-10T12:15:29.154Z,15.22
2023-04-10T12:20:32.230Z,15.38
2023-04-10T12:25:35.502Z,15.26
2023-04-10T12:30:38.310Z,15.06
2023-04-10T12:35:44.421Z,14.90
2023-04-10T12:41:02.981Z,14.82
2023-04-10T12:46:07.778Z,14.88
2023-04-10T12:51:10.655Z,15.01
2023-04-10T12:56:14.786Z,15.17
2023-04-10T13:01:17.664Z,15.29
2023-04-10T13:06:20.645Z,15.46
2023-04-10T13:11:23.550Z,15.64
2023-04-10T13:16:26.379Z,15.73
2023-04-10T13:21:29.931Z,15.66
2023-04-10T13:26:32.790Z,15.45
2023-04-10T13:31:35.848Z,15.26
2023-04-10T13:36:38.864Z,15.17
2023-04-10T13:41:41.796Z,15.14
2023-04-10T13:46:44.704Z,15.23
2023-04-10T13:51:47.924Z,15.32
2023-04-10T13:56:50.774Z,15.41
2023-04-10T14:01:53.697Z,15.36
2023-04-10T14:07:00.028Z,15.10
2023-04-10T14:12:03.276Z,14.71
2023-04-10T14:17:06.137Z,14.45
2023-04-10T14:22:09.035Z,14.28
2023-04-10T14:27:13.293Z,14.15
2023-04-10T14:32:16.374Z,14.07
2023-04-10T14:37:19.270Z,14.08
2023-04-10T14:42:23.713Z,14.09
2023-04-10T14:47:26.635Z,14.03
2023-04-10T14:52:29.488Z,14.00
2023-04-10T14:57:32.385Z,13.93
2023-04-10T15:02:35.469Z,13.79
2023-04-10T15:07:38.498Z,13.47
2023-04-10T15:12:42.497Z,13.19
2023-04-10T15:17:45.346Z,13.00
2023-04-10T15:22:48.290Z,12.89
2023-04-10T15:27:51.186Z,12.88
2023-04-10T15:32:54.067Z,12.97
2023-04-10T15:37:57.298Z,13.05
2023-04-10T15:43:02.960Z,13.18
2023-04-10T15:48:06.084Z,13.22
2023-04-10T15:53:09.511Z,13.15
2023-04-10T15:58:12.351Z,13.10
2023-04-10T16:03:21.332Z,13.09
2023-04-10T16:08:26.245Z,13.11
2023-04-10T16:13:29.179Z,13.15
2023-04-10T16:18:31.972Z,13.15
2023-04-10T16:23:34.772Z,13.13
2023-04-10T16:28:37.568Z,13.05
2023-04-10T16:33:41.694Z,12.93
2023-04-10T16:38:45.269Z,12.87
2023-04-10T16:43:48.243Z,12.81
2023-04-10T16:48:52.077Z,12.77
2023-04-10T16:53:54.832Z,12.72
2023-04-10T16:58:57.886Z,12.63
2023-04-10T17:04:00.907Z,12.55
2023-04-10T17:09:03.933Z,12.54
2023-04-10T17:14:07.520Z,12.53
2023-04-10T17:19:10.354Z,12.53
2023-04-10T17:24:13.827Z,12.61
2023-04-10T17:29:16.593Z,12.63
2023-04-10T17:34:19.374Z,12.58
2023-04-10T17:39:23.919Z,12.52
2023-04-10T17:44:26.706Z,12.33
2023-04-10T17:49:30.520Z,12.26
2023-04-10T17:54:34.157Z,12.31
2023-04-10T17:59:36.996Z,12.33
2023-04-10T18:04:39.799Z,12.32
2023-04-10T18:09:42.650Z,12.25
2023-04-10T18:14:45.632Z,12.17
2023-04-10T18:19:53.232Z,12.02
2023-04-10T18:24:56.097Z,11.82
2023-04-10T18:29:58.931Z,11.74
2023-04-10T18:35:03.655Z,11.75
2023-04-10T18:40:16.319Z,11.70
2023-04-10T18:45:20.552Z,11.67
2023-04-10T18:50:23.451Z,11.63
2023-04-10T18:55:26.248Z,11.59
2023-04-10T19:00:29.135Z,11.53
2023-04-10T19:05:32.687Z,11.49
2023-04-10T19:10:37.349Z,11.45
2023-04-10T19:15:46.273Z,11.44
2023-04-10T19:20:53.015Z,11.41
2023-04-10T19:25:58.598Z,11.41
2023-04-10T19:31:01.885Z,11.40
2023-04-10T19:36:08.042Z,11.26
2023-04-10T19:41:15.756Z,11.16
2023-04-10T19:46:21.957Z,11.07
2023-04-10T19:51:24.948Z,10.94
2023-04-10T19:56:30.630Z,10.88
2023-04-10T20:01:34.234Z,10.90
2023-04-10T20:06:37.059Z,10.89
2023-04-10T20:11:39.922Z,10.86
2023-04-10T20:16:42.785Z,10.75
2023-04-10T20:21:45.723Z,10.62
2023-04-10T20:26:48.716Z,10.49
2023-04-10T20:31:51.559Z,10.36
2023-04-10T20:36:54.591Z,10.26
2023-04-10T20:41:57.449Z,10.13
2023-04-10T20:47:02.891Z,10.00
2023-04-10T20:52:06.861Z,9.88
2023-04-10T20:57:09.801Z,9.77
2023-04-10T21:02:13.310Z,9.72
2023-04-10T21:07:16.074Z,9.70
2023-04-10T21:12:18.875Z,9.69
2023-04-10T21:17:22.265Z,9.66
2023-04-10T21:22:27.003Z,9.61
2023-04-10T21:27:30.952Z,9.59
2023-04-10T21:32:33.825Z,9.63
2023-04-10T21:37:37.166Z,9.64
2023-04-10T21:42:39.999Z,9.66
2023-04-10T21:47:42.894Z,9.63
2023-04-10T21:52:45.824Z,9.59
2023-04-10T21:57:48.661Z,9.49
2023-04-10T22:02:52.029Z,9.44
2023-04-10T22:07:55.251Z,9.40
2023-04-10T22:12:58.071Z,9.29
2023-04-10T22:18:00.985Z,9.24
2023-04-10T22:23:06.867Z,9.14
2023-04-10T22:28:09.683Z,9.06
2023-04-10T22:33:12.513Z,9.10
2023-04-10T22:38:15.596Z,9.09
2023-04-10T22:43:18.407Z,9.05
2023-04-10T22:48:21.414Z,9.01
2023-04-10T22:53:24.262Z,8.92
2023-04-10T22:58:27.124Z,8.86
2023-04-10T23:03:29.957Z,8.83
2023-04-10T23:08:32.826Z,8.83
2023-04-10T23:13:36.070Z,8.85
2023-04-10T23:18:39.248Z,8.85
2023-04-10T23:23:42.137Z,8.85
2023-04-10T23:28:44.973Z,8.85
2023-04-10T23:33:47.801Z,8.80
2023-04-10T23:38:50.733Z,8.64
2023-04-10T23:43:54.020Z,8.54
2023-04-10T23:48:56.868Z,8.49
2023-04-10T23:53:59.698Z,8.52
2023-04-10T23:59:02.527Z,8.56
